Nearby METAR Reports

 

KPMP - Pompano Beach, Florida, USA
Distance from station: NNW 3mi, 5km
Updated: 09/29/2022 2:53am
Mostly cloudy
Mostly cloudy
 Wind from SSW
Wind: SSW 22 mph , 35 km/h, Gust: 30 mph , 48 km/h
Temperature: 81°F , 27°C
Heat Index: 85°F , 29°C
Dew Point: 72°F , 22°C
Humidity: 74%
Barometer: 29.62 inHg , 1003 hPa
Clouds: Mostly cloudy
Visibility: 10 miles , 16 km
Cloud details: Partly cloudy 2300 ft
Mostly cloudy 3400 ft
2022/09/29 06:53 KPMP 290653Z AUTO 21019G26KT 10SM SCT023 BKN034 27/22 A2962 RMK AO2 PK WND 21030/0608 SLP029 T02670222 $
KFXE - Ft Lauderd/Exec, Florida, USA
Distance from station: W 6mi, 9km
Updated: 09/29/2022 3:06am
Mostly cloudy
Mostly cloudy
 Wind from SW
Wind: SW 23 mph , 37 km/h, Gust: 35 mph , 56 km/h
Temperature: 81°F , 27°C
Heat Index: 87°F , 31°C
Dew Point: 75°F , 24°C
Humidity: 84%
Barometer: 29.62 inHg , 1003 hPa
Clouds: Mostly cloudy
Visibility: 10 miles , 16 km
Cloud details: Mostly cloudy 2300 ft
2022/09/29 07:06 KFXE 290706Z AUTO 22020G30KT 10SM BKN023 27/24 A2962 RMK AO2 PK WND 21030/0658 T02670239 TSNO $
 
KFLL - Ft Lauderd/Holly, Florida, USA
Distance from station: SSW 11mi, 17km
Updated: 09/29/2022 2:53am
Overcast
Overcast
 Wind from SW
Wind: SW 21 mph , 33 km/h, Gust: 35 mph , 56 km/h
Temperature: 81°F , 27°C
Heat Index: 86°F , 30°C
Dew Point: 73°F , 23°C
Humidity: 79%
Barometer: 29.63 inHg , 1003.4 hPa
Clouds: Overcast
Visibility: 10 miles , 16 km
Cloud details: Partly cloudy 2000 ft
Mostly cloudy 3000 ft
Overcast 6500 ft
2022/09/29 06:53 KFLL 290653Z 22018G30KT 10SM SCT020 BKN030 OVC065 27/23 A2963 RMK AO2 PK WND 23030/0644 SLP033 T02670228 $
KBCT - Boca Raton, Florida, USA
Distance from station: N 12mi, 19km
Updated: 09/28/2022 10:53pm
NOT Current
Overcast
Overcast
 Wind from SW
Wind: SW 29 mph , 46 km/h, Gust: 44 mph , 70 km/h
Temperature: 81°F , 27°C
Heat Index: 86°F , 30°C
Dew Point: 73°F , 23°C
Humidity: 79%
Barometer: 29.61 inHg , 1002.7 hPa
Clouds: Overcast
Visibility: 10 miles , 16 km
Cloud details: Overcast 2500 ft
2022/09/29 02:53 KBCT 290253Z 22025G38KT 10SM OVC025 27/23 A2961
 
KHWO - Hollywood, Florida, USA
Distance from station: SSW 17mi, 27km
Updated: 09/29/2022 2:53am
Mostly cloudy
Mostly cloudy
 Wind from SW
Wind: SW 18 mph , 30 km/h, Gust: 30 mph , 48 km/h
Temperature: 79°F , 26°C
Dew Point: 72°F , 22°C
Humidity: 79%
Barometer: 29.66 inHg , 1004.4 hPa
Clouds: Mostly cloudy
Visibility: 10 miles , 16 km
Cloud details: Partly cloudy 2200 ft
Mostly cloudy 3300 ft
Mostly cloudy 4000 ft
2022/09/29 06:53 KHWO 290653Z AUTO 22016G26KT 10SM SCT022 BKN033 BKN040 26/22 A2966 RMK AO2 PK WND 20028/0603 SLP043 T02610222
KOPF - Miami/Opa Locka, Florida, USA
Distance from station: SSW 24mi, 38km
Updated: 09/29/2022 2:53am
Mostly cloudy
Mostly cloudy
 Wind from SW
Wind: SW 20 mph , 31 km/h, Gust: 29 mph , 46 km/h
Temperature: 79°F , 26°C
Dew Point: 72°F , 22°C
Humidity: 79%
Barometer: 29.66 inHg , 1004.4 hPa
Clouds: Mostly cloudy
Visibility: 10 miles , 16 km
Cloud details: Partly cloudy 2100 ft
Mostly cloudy 4000 ft
2022/09/29 06:53 KOPF 290653Z AUTO 22017G25KT 10SM SCT021 BKN040 26/22 A2966 RMK AO2 SLP045 T02610217 $
 
KMIA - Miami, Florida, USA
Distance from station: SSW 31mi, 50km
Updated: 09/29/2022 2:53am
Mostly cloudy
Mostly cloudy
 Wind from SW
Wind: SW 13 mph , 20 km/h, Gust: 24 mph , 39 km/h
Temperature: 81°F , 27°C
Heat Index: 86°F , 30°C
Dew Point: 73°F , 23°C
Humidity: 79%
Barometer: 29.67 inHg , 1004.7 hPa
Clouds: Mostly cloudy
Visibility: 10 miles , 16 km
Cloud details: Few Clouds 2000 ft
Partly cloudy 3600 ft
Mostly cloudy 25000 ft
2022/09/29 06:53 KMIA 290653Z 22011G21KT 10SM FEW020 SCT036 BKN250 27/23 A2967 RMK AO2 SLP047 T02670228 $
KPBI - West Palm Beach, Florida, USA
Distance from station: N 33mi, 52km
Updated: 09/29/2022 2:53am
Mostly cloudy
Mostly cloudy
 Wind from SSW
Wind: SSW 28 mph , 44 km/h, Gust: 43 mph , 69 km/h
Temperature: 79°F , 26°C
Dew Point: 72°F , 22°C
Humidity: 79%
Barometer: 29.56 inHg , 1001 hPa
Clouds: Mostly cloudy
Visibility: 10 miles , 16 km
Cloud details: Mostly cloudy 2200 ft
Mostly cloudy 4600 ft
2022/09/29 06:53 KPBI 290653Z 20024G37KT 10SM BKN022 BKN046 26/22 A2956 RMK AO2 PK WND 20041/0630 SLP008 T02610217
 
KTMB - Miami/Tamiami, Florida, USA
Distance from station: SSW 44mi, 71km
Updated: 09/29/2022 2:53am
Mostly cloudy
Mostly cloudy
 Wind from SW
Wind: SW 12 mph , 19 km/h, Gust: 20 mph , 31 km/h
Temperature: 79°F , 26°C
Dew Point: 73°F , 23°C
Humidity: 84%
Barometer: 29.68 inHg , 1005.1 hPa
Clouds: Mostly cloudy
Visibility: 10 miles , 16 km
Cloud details: Partly cloudy 2300 ft
Mostly cloudy 3800 ft
2022/09/29 06:53 KTMB 290653Z AUTO 23010G17KT 10SM SCT023 BKN038 26/23 A2968 RMK AO2 SLP049 T02610228